Главная страница
METAR-TAF:

METAR-TAF

Аэропорты :

Актобе, Казахстан

широта: 50-17N, долгота: 057-09E, высота над уровнем моря: 227 м

Текущие метеонаблюдения

Эта сводка был подготовлена 22 минут назад, в 07:00 UTC
Ветер 8 Узел от северно-северо-западный, изменяющийся между северо-западный и северо-северо-восточный
Температура 19°C
Влажность 24%
Давление 1031 hPa
Видимость 10 км и более
Нет облачности ниже 1500 м, и нет кучево-дождевой облачности

METAR: UATT 290700Z 33004MPS 310V030 CAVOK 19/M02 Q1031 R31/70D NOSIG RMK QFE753/1004

Время: 12:22 (07:22 UTC)

Прогноз

Эта сводка был подготовлена 2 часа и 22 минут назад, в 05:00 UTC
Прогноз действительный с 29-го 06 UTC до 30-го 06 UTC
Ветер 10 Узел от северо-западный
Видимость: 5000 м
дым

TAF: UATT 290500Z 2906/3006 32005MPS 5000 FU NSC TX22/2910Z TN04/3001Z

Метеонаблюдения и прогнозы для более 4000 аэропортов (сводки METAR и TAF).

Имеющиеся станции представлены на карте желтыми и красными точками.

Чтобы увидеть название станции, наведите на нее мышь.

Затем щелкните, чтобы увидеть метеонаблюдения и метеопрогнозы.

Управление картой: чтобы увеличить масштаб, щелкните зеленые кнопки с черным крестиком; чтобы уменьшить масштаб, щелкните зеленую кнопку с тире; для просмотра соседних карт щелкайте зеленые стрелки.


METAR-TAF: